Portada
METAR-TAF:

METAR-TAF

Aeroports :

Sitifis, Algèria

latitud: 36-11N, longitud: 005-25E, altitud: 1038 m

Observació

L'informe es va fer fa 30 minuts, a les 17:00 UTC
Vent 9 kt del Nord
Temperatura 12°C
Humitat 47%
Pressió 1018 hPa
Visibilitat 10 km o més
Núvols disperses a una alçada de 2600 ft

METAR: DAAS 261700Z 35009KT 9999 SCT026 12/01 Q1018

Hora: 18:30 (17:30 UTC)

Pronòstic

L'informe es va fer fa 6 hores i 30 minuts, a les 11:00 UTC
Pronòstic vàlid del 26 a les 12 UTC al 27 a les 12 UTC
Vent 12 kt del Nord/Nord-Oest
Visibilitat 10 km o més
Escasses núvols a una alçada de 2600 ft
Núvols disperses a una alçada de 20000 ft
Evolucionant progressivament
l' 26 a les 18 UTC al 26 a les 20 UTC
Vent 8 kt del Oest
Probabilitat 30% :
Temporalment
l' 27 a les 00 UTC al 27 a les 07 UTC
Visibilitat: 2000 m
Cel ennuvolat a una alçada de 1000 ft
boirina

TAF: DAAS 261100Z 2612/2712 33012KT 9999 FEW026 SCT200 BECMG 2618/2620 27008KT PROB30 TEMPO 2700/2707 2000 BR BKN010

Observacions i pronòstics meteorològics de més de 4000 aeroports (METAR i TAF).

Les estacions disponibles són els punts grocs i vermells al mapa.

Posi el ratolí al punt desitjat per veure el nom de l'estació.

Feu clic per veure les observacions i els pronòstics meteorològics.

Per canviar el mapa: feu clic els botons verds amb una creu de color negre per apropar; al botó verd amb un guió per allunyar la imatge; o en les fletxes verdes per a mapes adjacents.


METAR-TAF: